createdAt,value
2022-08-04T00:00:10.003Z,56.10
2022-08-04T00:03:15.378Z,57.34
2022-08-04T00:05:46.871Z,57.48
2022-08-04T00:08:44.345Z,57.97
2022-08-04T00:11:15.582Z,58.21
2022-08-04T00:13:52.636Z,58.54
2022-08-04T00:16:40.991Z,58.93
2022-08-04T00:19:16.662Z,59.17
2022-08-04T00:21:51.600Z,59.66
2022-08-04T00:24:19.516Z,60.69
2022-08-04T00:26:46.302Z,62.59
2022-08-04T00:29:13.077Z,64.08
2022-08-04T00:31:56.309Z,64.82
2022-08-04T00:34:28.670Z,65.62
2022-08-04T00:36:56.709Z,66.00
2022-08-04T00:39:23.848Z,66.24
2022-08-04T00:42:24.476Z,67.07
2022-08-04T00:45:08.490Z,67.01
2022-08-04T00:48:12.353Z,66.42
2022-08-04T00:50:56.344Z,67.13
2022-08-04T00:54:01.570Z,67.43
2022-08-04T00:56:52.695Z,67.52
2022-08-04T00:59:37.142Z,68.23
2022-08-04T01:02:06.739Z,68.55
2022-08-04T01:04:43.215Z,68.64
2022-08-04T01:07:20.965Z,69.42
2022-08-04T01:10:04.616Z,70.40
2022-08-04T01:12:42.433Z,71.04
2022-08-04T01:15:32.744Z,71.79
2022-08-04T01:18:57.815Z,71.91
2022-08-04T01:21:37.115Z,71.57
2022-08-04T01:24:18.608Z,72.07
2022-08-04T01:26:58.268Z,71.81
2022-08-04T01:29:38.250Z,72.00
2022-08-04T01:32:26.451Z,71.37
2022-08-04T01:35:02.570Z,71.19
2022-08-04T01:37:54.774Z,70.54
2022-08-04T01:40:21.828Z,70.59
2022-08-04T01:42:53.250Z,70.80
2022-08-04T01:45:20.341Z,70.52
2022-08-04T01:47:52.218Z,69.74
2022-08-04T01:50:20.172Z,69.62
2022-08-04T01:52:50.993Z,69.50
2022-08-04T01:55:18.747Z,69.12
2022-08-04T01:57:47.008Z,69.09
2022-08-04T02:00:17.374Z,68.56
2022-08-04T02:02:45.421Z,68.15
2022-08-04T02:05:16.099Z,68.15
2022-08-04T02:07:42.532Z,68.30
2022-08-04T02:10:23.799Z,68.57
2022-08-04T02:12:59.451Z,69.89
2022-08-04T02:15:51.473Z,70.84
2022-08-04T02:18:49.078Z,70.99
2022-08-04T02:21:19.687Z,71.14
2022-08-04T02:23:52.025Z,71.06
2022-08-04T02:26:22.612Z,71.12
2022-08-04T02:29:01.505Z,71.08
2022-08-04T02:31:36.543Z,71.24
2022-08-04T02:34:17.096Z,71.23
2022-08-04T02:36:44.834Z,70.79
2022-08-04T02:39:12.532Z,70.69
2022-08-04T02:41:40.251Z,70.37
2022-08-04T02:44:10.574Z,70.59
2022-08-04T02:46:38.635Z,70.57
2022-08-04T02:49:08.319Z,70.97
2022-08-04T02:51:45.264Z,71.04
2022-08-04T02:54:11.864Z,70.97
2022-08-04T02:56:40.434Z,71.06
2022-08-04T02:59:12.119Z,71.33
2022-08-04T03:01:56.465Z,71.79
2022-08-04T03:04:57.627Z,72.53
2022-08-04T03:07:39.183Z,72.77
2022-08-04T03:10:23.961Z,72.46
2022-08-04T03:13:15.390Z,72.42
2022-08-04T03:15:50.633Z,72.52
2022-08-04T03:18:35.976Z,72.61
2022-08-04T03:21:13.041Z,73.22
2022-08-04T03:24:10.421Z,74.01
2022-08-04T03:27:06.668Z,74.21
2022-08-04T03:30:03.111Z,74.53
2022-08-04T03:32:35.597Z,74.19
2022-08-04T03:35:22.695Z,74.29
2022-08-04T03:38:10.867Z,74.72
2022-08-04T03:40:55.698Z,75.09
2022-08-04T03:43:59.608Z,75.24
2022-08-04T03:46:41.817Z,75.60
2022-08-04T03:49:17.391Z,76.15
2022-08-04T03:52:10.744Z,76.34
2022-08-04T03:55:30.531Z,76.22
2022-08-04T03:58:20.962Z,76.79
2022-08-04T04:01:20.688Z,76.70
2022-08-04T04:04:09.980Z,76.88
2022-08-04T04:06:44.014Z,77.66
2022-08-04T04:09:56.742Z,78.65
2022-08-04T04:12:46.686Z,78.61
2022-08-04T04:15:55.278Z,78.50
2022-08-04T04:18:47.185Z,78.57
2022-08-04T04:21:31.971Z,78.42
2022-08-04T04:24:33.666Z,78.38
2022-08-04T04:27:17.888Z,78.65
2022-08-04T04:30:06.647Z,78.42
2022-08-04T04:32:39.271Z,78.21
2022-08-04T04:35:08.942Z,78.46
2022-08-04T04:37:48.929Z,78.44
2022-08-04T04:40:34.031Z,78.70
2022-08-04T04:43:19.268Z,78.43
2022-08-04T04:46:00.357Z,78.60
2022-08-04T04:48:33.853Z,78.69
2022-08-04T04:51:27.056Z,78.86
2022-08-04T04:54:20.379Z,79.09
2022-08-04T04:57:13.632Z,79.66
2022-08-04T05:00:06.248Z,79.64
2022-08-04T05:03:01.687Z,78.87
2022-08-04T05:06:17.296Z,78.60
2022-08-04T05:08:59.288Z,78.06
2022-08-04T05:11:44.623Z,76.76
2022-08-04T05:14:35.372Z,76.47
2022-08-04T05:17:21.631Z,76.06
2022-08-04T05:20:15.420Z,74.44
2022-08-04T05:22:54.413Z,73.23
2022-08-04T05:25:58.800Z,73.84
2022-08-04T05:28:41.297Z,72.64
2022-08-04T05:31:14.218Z,70.24
2022-08-04T05:33:52.272Z,70.22
2022-08-04T05:36:40.421Z,69.64
2022-08-04T05:39:13.346Z,69.71
2022-08-04T05:41:45.545Z,69.18
2022-08-04T05:44:16.809Z,69.31
2022-08-04T05:46:53.556Z,68.77
2022-08-04T05:49:23.289Z,66.59
2022-08-04T05:51:52.143Z,66.31
2022-08-04T05:54:21.145Z,66.22
2022-08-04T05:56:48.770Z,65.11
2022-08-04T05:59:15.925Z,63.42
2022-08-04T06:01:55.497Z,62.98
2022-08-04T06:04:28.000Z,63.64
2022-08-04T06:06:55.308Z,62.57
2022-08-04T06:09:21.947Z,61.19
2022-08-04T06:12:00.689Z,61.24
2022-08-04T06:14:35.624Z,61.19
2022-08-04T06:17:05.866Z,60.89
2022-08-04T06:20:00.895Z,60.29
2022-08-04T06:22:34.914Z,59.50
2022-08-04T06:25:07.855Z,59.75
2022-08-04T06:27:35.422Z,59.62
2022-08-04T06:30:03.028Z,59.37
2022-08-04T06:32:47.837Z,58.53
2022-08-04T06:35:18.786Z,58.91
2022-08-04T06:37:49.601Z,57.41
2022-08-04T06:40:31.625Z,57.29
2022-08-04T06:43:01.263Z,56.00
2022-08-04T06:45:28.605Z,56.19
2022-08-04T06:47:56.561Z,54.32
2022-08-04T06:51:24.665Z,54.94
2022-08-04T06:53:11.833Z,53.65
2022-08-04T06:55:39.292Z,52.22
2022-08-04T06:58:07.496Z,52.94
2022-08-04T07:00:36.773Z,51.03
2022-08-04T07:03:04.260Z,51.46
2022-08-04T07:05:31.443Z,50.43
2022-08-04T07:07:59.158Z,49.92
2022-08-04T07:10:28.193Z,49.96
2022-08-04T07:12:59.464Z,49.44
2022-08-04T07:15:27.849Z,49.62
2022-08-04T07:17:59.997Z,50.38
2022-08-04T07:20:35.317Z,48.92
2022-08-04T07:23:06.922Z,48.56
2022-08-04T07:25:59.980Z,47.37
2022-08-04T07:28:25.170Z,47.14
2022-08-04T07:30:53.754Z,47.26
2022-08-04T07:33:21.137Z,47.60
2022-08-04T07:36:04.745Z,47.01
2022-08-04T07:38:46.460Z,47.04
2022-08-04T07:41:39.054Z,45.47
2022-08-04T07:44:07.278Z,45.92
2022-08-04T07:46:34.164Z,45.66
2022-08-04T07:49:04.412Z,45.00
2022-08-04T07:51:32.281Z,44.01
2022-08-04T07:54:00.392Z,44.00
2022-08-04T07:56:27.910Z,44.22
2022-08-04T07:58:55.512Z,43.99
2022-08-04T08:01:24.027Z,43.25
2022-08-04T08:03:52.868Z,43.57
2022-08-04T08:06:32.378Z,43.44
2022-08-04T08:09:13.219Z,43.09
2022-08-04T08:12:35.249Z,42.34
2022-08-04T08:14:34.254Z,41.84
2022-08-04T08:17:04.143Z,41.30
2022-08-04T08:19:31.537Z,41.67
2022-08-04T08:22:00.516Z,40.39
2022-08-04T08:24:35.254Z,39.96
2022-08-04T08:27:07.001Z,40.27
2022-08-04T08:29:35.180Z,39.61
2022-08-04T08:32:08.122Z,39.06
2022-08-04T08:34:37.515Z,39.14
2022-08-04T08:37:41.887Z,38.93
2022-08-04T08:40:40.640Z,39.56
2022-08-04T08:44:00.293Z,39.17
2022-08-04T08:47:20.542Z,38.20
2022-08-04T08:50:11.182Z,38.50
2022-08-04T08:53:28.411Z,38.16
2022-08-04T08:56:31.346Z,37.65
2022-08-04T08:59:16.746Z,36.36
2022-08-04T09:01:43.269Z,36.53
2022-08-04T09:04:32.049Z,36.42
2022-08-04T09:07:08.477Z,35.72
2022-08-04T09:09:46.710Z,36.21
2022-08-04T09:12:28.046Z,35.44
2022-08-04T09:15:03.381Z,34.89
2022-08-04T09:17:43.203Z,35.67
2022-08-04T09:20:30.607Z,36.26
2022-08-04T09:23:15.964Z,33.81
2022-08-04T09:26:03.955Z,34.24
2022-08-04T09:28:58.068Z,35.10
2022-08-04T09:31:49.053Z,34.85
2022-08-04T09:35:03.305Z,33.56
2022-08-04T09:37:54.867Z,34.02
2022-08-04T09:40:31.874Z,33.86
2022-08-04T09:43:58.950Z,34.70
2022-08-04T09:46:39.281Z,34.11
2022-08-04T09:49:17.087Z,33.21
2022-08-04T09:51:58.271Z,33.34
2022-08-04T09:54:39.758Z,31.99
2022-08-04T09:57:26.936Z,32.39
2022-08-04T09:59:56.371Z,31.89
2022-08-04T10:02:25.690Z,32.29
2022-08-04T10:04:56.832Z,31.71
2022-08-04T10:07:59.542Z,32.04
2022-08-04T10:10:52.096Z,32.01
2022-08-04T10:13:28.682Z,31.34
2022-08-04T10:16:30.898Z,31.26
2022-08-04T10:19:20.751Z,31.04
2022-08-04T10:22:29.847Z,30.19
2022-08-04T10:25:44.459Z,30.91
2022-08-04T10:28:06.441Z,31.24
2022-08-04T10:30:39.369Z,31.14
2022-08-04T10:33:18.216Z,30.39
2022-08-04T10:35:57.561Z,30.37
2022-08-04T10:38:30.876Z,30.72
2022-08-04T10:41:25.400Z,30.83
2022-08-04T10:44:05.978Z,30.83
2022-08-04T10:46:39.489Z,29.84
2022-08-04T10:49:14.875Z,31.09
2022-08-04T10:51:58.543Z,30.92
2022-08-04T10:54:53.076Z,29.83
2022-08-04T10:57:48.639Z,29.01
2022-08-04T11:00:21.904Z,28.53
2022-08-04T11:02:58.528Z,28.76
2022-08-04T11:05:52.587Z,29.04
2022-08-04T11:08:34.575Z,29.26
2022-08-04T11:12:00.708Z,29.25
2022-08-04T11:14:37.096Z,29.75
2022-08-04T11:17:11.212Z,29.67
2022-08-04T11:20:12.618Z,28.79
2022-08-04T11:23:01.123Z,29.66
2022-08-04T11:25:36.440Z,28.44
2022-08-04T11:28:22.723Z,29.00
2022-08-04T11:31:35.715Z,27.91
2022-08-04T11:34:21.948Z,29.18
2022-08-04T11:37:02.932Z,27.42
2022-08-04T11:39:30.842Z,28.09
2022-08-04T11:42:21.138Z,27.53
2022-08-04T11:44:51.445Z,27.24
2022-08-04T11:47:38.912Z,28.08
2022-08-04T11:50:20.404Z,27.85
2022-08-04T11:52:48.232Z,27.66
2022-08-04T11:55:19.400Z,27.71
2022-08-04T11:57:46.179Z,27.44
2022-08-04T12:00:22.461Z,26.69
2022-08-04T12:02:52.196Z,27.54
2022-08-04T12:05:36.716Z,26.76
2022-08-04T12:08:32.815Z,26.40
2022-08-04T12:11:14.612Z,25.49
2022-08-04T12:14:01.063Z,25.85
2022-08-04T12:16:36.075Z,25.49
2022-08-04T12:19:10.066Z,26.13
2022-08-04T12:21:55.710Z,25.95
2022-08-04T12:24:33.519Z,26.31
2022-08-04T12:27:16.804Z,26.26
2022-08-04T12:30:54.190Z,26.18
2022-08-04T12:32:48.397Z,26.27
2022-08-04T12:36:10.060Z,26.16
2022-08-04T12:38:46.590Z,26.51
2022-08-04T12:41:16.805Z,25.42
2022-08-04T12:43:43.561Z,25.82
2022-08-04T12:46:17.702Z,26.29
2022-08-04T12:48:47.401Z,25.91
2022-08-04T12:52:06.472Z,25.55
2022-08-04T12:54:03.376Z,25.46
2022-08-04T12:56:30.980Z,24.99
2022-08-04T12:59:04.032Z,24.69
2022-08-04T13:02:08.161Z,25.89
2022-08-04T13:04:29.697Z,25.21
2022-08-04T13:07:15.611Z,24.98
2022-08-04T13:09:43.490Z,24.99
2022-08-04T13:12:14.478Z,25.21
2022-08-04T13:14:45.341Z,25.84
2022-08-04T13:17:12.722Z,25.67
2022-08-04T13:19:45.603Z,25.82
2022-08-04T13:22:16.253Z,25.66
2022-08-04T13:24:57.122Z,25.59
2022-08-04T13:27:43.413Z,25.94
2022-08-04T13:30:12.834Z,25.44
2022-08-04T13:32:55.526Z,25.49
2022-08-04T13:35:25.889Z,26.46
2022-08-04T13:38:15.155Z,26.60
2022-08-04T13:40:43.457Z,26.09
2022-08-04T13:44:15.585Z,26.73
2022-08-04T13:46:13.077Z,25.76
2022-08-04T13:48:42.785Z,25.49
2022-08-04T13:51:11.051Z,25.71
2022-08-04T13:53:40.588Z,26.35
2022-08-04T13:56:10.550Z,26.31
2022-08-04T13:58:44.876Z,26.46
2022-08-04T14:01:35.965Z,26.29
2022-08-04T14:04:09.761Z,26.42
2022-08-04T14:06:49.208Z,26.01
2022-08-04T14:09:18.752Z,26.41
2022-08-04T14:12:06.914Z,26.47
2022-08-04T14:14:52.672Z,25.27
2022-08-04T14:17:30.230Z,24.79
2022-08-04T14:20:02.392Z,24.79
2022-08-04T14:22:31.604Z,26.33
2022-08-04T14:25:01.628Z,26.98
2022-08-04T14:27:29.419Z,27.07
2022-08-04T14:29:56.215Z,26.74
2022-08-04T14:32:26.108Z,26.50
2022-08-04T14:34:53.077Z,26.06
2022-08-04T14:37:21.162Z,25.39
2022-08-04T14:40:17.786Z,26.17
2022-08-04T14:42:54.473Z,27.07
2022-08-04T14:45:54.241Z,26.80
2022-08-04T14:48:22.301Z,26.59
2022-08-04T14:50:50.407Z,26.81
2022-08-04T14:53:26.365Z,25.84
2022-08-04T14:55:57.047Z,25.84
2022-08-04T14:58:35.958Z,24.65
2022-08-04T15:01:09.806Z,22.49
2022-08-04T15:03:49.799Z,22.01
2022-08-04T15:06:23.271Z,21.71
2022-08-04T15:08:52.016Z,20.42
2022-08-04T15:11:23.346Z,19.81
2022-08-04T15:13:52.434Z,20.09
2022-08-04T15:16:19.286Z,19.46
2022-08-04T15:18:49.204Z,19.34
2022-08-04T15:21:16.629Z,18.94
2022-08-04T15:23:45.686Z,18.58
2022-08-04T15:26:15.548Z,18.56
2022-08-04T15:28:49.013Z,19.39
2022-08-04T15:32:05.338Z,19.66
2022-08-04T15:34:04.704Z,20.96
2022-08-04T15:36:37.477Z,21.11
2022-08-04T15:39:07.139Z,22.38
2022-08-04T15:41:46.292Z,22.72
2022-08-04T15:44:24.378Z,22.91
2022-08-04T15:46:50.857Z,22.75
2022-08-04T15:49:25.246Z,22.35
2022-08-04T15:52:18.475Z,21.11
2022-08-04T15:54:52.641Z,21.59
2022-08-04T15:57:59.652Z,21.67
2022-08-04T16:00:26.398Z,22.99
2022-08-04T16:02:53.273Z,23.74
2022-08-04T16:05:19.867Z,24.08
2022-08-04T16:07:58.881Z,24.66
2022-08-04T16:10:31.499Z,24.86
2022-08-04T16:13:06.960Z,25.66
2022-08-04T16:15:53.291Z,25.66
2022-08-04T16:18:27.343Z,25.95
2022-08-04T16:21:02.524Z,25.94
2022-08-04T16:23:56.040Z,25.99
2022-08-04T16:26:37.767Z,26.78
2022-08-04T16:29:27.819Z,26.97
2022-08-04T16:32:07.088Z,26.85
2022-08-04T16:34:48.954Z,27.66
2022-08-04T16:37:18.966Z,27.49
2022-08-04T16:39:50.382Z,27.87
2022-08-04T16:42:30.435Z,27.86
2022-08-04T16:45:01.980Z,27.93
2022-08-04T16:48:08.067Z,27.78
2022-08-04T16:50:47.539Z,27.76
2022-08-04T16:54:02.741Z,27.55
2022-08-04T16:56:02.956Z,27.51
2022-08-04T16:58:34.512Z,27.49
2022-08-04T17:01:21.868Z,27.94
2022-08-04T17:04:04.797Z,27.67
2022-08-04T17:06:36.683Z,27.28
2022-08-04T17:09:18.802Z,27.64
2022-08-04T17:11:47.320Z,28.14
2022-08-04T17:14:14.154Z,28.11
2022-08-04T17:16:52.315Z,28.15
2022-08-04T17:19:23.688Z,28.36
2022-08-04T17:22:04.588Z,28.60
2022-08-04T17:24:34.185Z,29.14
2022-08-04T17:27:01.055Z,28.25
2022-08-04T17:29:44.004Z,27.96
2022-08-04T17:32:16.874Z,28.44
2022-08-04T17:34:47.530Z,28.74
2022-08-04T17:37:41.274Z,28.19
2022-08-04T17:40:18.645Z,28.37
2022-08-04T17:44:05.193Z,28.61
2022-08-04T17:46:29.383Z,29.04
2022-08-04T17:49:10.464Z,29.04
2022-08-04T17:52:05.383Z,29.19
2022-08-04T17:54:39.415Z,29.09
2022-08-04T17:57:21.809Z,29.69
2022-08-04T17:59:59.087Z,29.52
2022-08-04T18:02:34.774Z,29.86
2022-08-04T18:05:09.975Z,29.90
2022-08-04T18:08:35.432Z,30.09
2022-08-04T18:10:52.447Z,29.86
2022-08-04T18:13:24.453Z,29.99
2022-08-04T18:16:02.648Z,30.49
2022-08-04T18:18:29.854Z,30.95
2022-08-04T18:20:56.555Z,30.95
2022-08-04T18:23:31.504Z,31.11
2022-08-04T18:26:02.258Z,30.93
2022-08-04T18:28:30.903Z,30.71
2022-08-04T18:30:59.892Z,30.56
2022-08-04T18:33:40.521Z,30.53
2022-08-04T18:36:32.666Z,30.88
2022-08-04T18:42:03.899Z,31.23
2022-08-04T18:44:32.639Z,31.34
2022-08-04T18:47:19.278Z,31.68
2022-08-04T18:51:00.805Z,31.86
2022-08-04T18:52:33.488Z,32.26
2022-08-04T18:55:01.582Z,32.70
2022-08-04T18:57:58.553Z,32.68
2022-08-04T19:00:19.863Z,32.94
2022-08-04T19:02:46.958Z,33.35
2022-08-04T19:05:17.065Z,33.17
2022-08-04T19:08:02.135Z,33.84
2022-08-04T19:10:30.953Z,34.64
2022-08-04T19:12:59.496Z,35.37
2022-08-04T19:15:34.148Z,35.64
2022-08-04T19:18:01.714Z,35.91
2022-08-04T19:20:30.679Z,36.06
2022-08-04T19:24:28.616Z,36.04
2022-08-04T19:26:01.242Z,36.60
2022-08-04T19:28:31.857Z,36.56
2022-08-04T19:31:02.650Z,36.46
2022-08-04T19:33:58.442Z,36.47
2022-08-04T19:36:17.304Z,36.70
2022-08-04T19:38:44.567Z,36.52
2022-08-04T19:41:14.617Z,36.12
2022-08-04T19:43:43.984Z,36.21
2022-08-04T19:46:12.081Z,36.48
2022-08-04T19:48:39.367Z,36.71
2022-08-04T19:51:05.964Z,37.01
2022-08-04T19:53:37.423Z,37.43
2022-08-04T19:56:05.265Z,37.66
2022-08-04T19:58:31.795Z,37.24
2022-08-04T20:00:58.467Z,37.45
2022-08-04T20:04:10.292Z,37.87
2022-08-04T20:06:11.864Z,38.13
2022-08-04T20:08:38.408Z,37.93
2022-08-04T20:11:14.824Z,38.01
2022-08-04T20:13:42.572Z,38.31
2022-08-04T20:16:28.739Z,38.49
2022-08-04T20:19:00.823Z,38.48
2022-08-04T20:21:54.194Z,38.24
2022-08-04T20:24:38.798Z,38.82
2022-08-04T20:27:04.911Z,39.25
2022-08-04T20:29:40.672Z,39.59
2022-08-04T20:32:10.295Z,39.92
2022-08-04T20:34:38.109Z,39.71
2022-08-04T20:37:15.309Z,40.30
2022-08-04T20:39:42.323Z,40.56
2022-08-04T20:42:11.620Z,40.73
2022-08-04T20:44:42.171Z,40.93
2022-08-04T20:47:09.121Z,40.89
2022-08-04T20:49:35.637Z,41.32
2022-08-04T20:54:56.198Z,41.46
2022-08-04T20:57:50.006Z,41.89
2022-08-04T21:00:10.351Z,42.17
2022-08-04T21:02:40.219Z,42.11
2022-08-04T21:05:09.469Z,42.24
2022-08-04T21:07:36.530Z,42.67
2022-08-04T21:10:10.284Z,42.42
2022-08-04T21:12:36.748Z,42.42
2022-08-04T21:15:14.446Z,42.02
2022-08-04T21:17:57.031Z,42.21
2022-08-04T21:20:30.033Z,42.57
2022-08-04T21:22:59.697Z,42.37
2022-08-04T21:25:29.517Z,42.06
2022-08-04T21:27:58.587Z,42.07
2022-08-04T21:30:26.648Z,42.51
2022-08-04T21:32:54.903Z,42.53
2022-08-04T21:35:22.633Z,43.01
2022-08-04T21:38:04.292Z,43.36
2022-08-04T21:40:50.961Z,43.13
2022-08-04T21:43:21.108Z,43.39
2022-08-04T21:45:50.635Z,43.67
2022-08-04T21:48:17.479Z,44.35
2022-08-04T21:50:44.329Z,44.49
2022-08-04T21:53:19.646Z,44.76
2022-08-04T21:58:33.784Z,44.56
2022-08-04T22:01:00.443Z,44.75
2022-08-04T22:03:53.876Z,44.53
2022-08-04T22:06:17.479Z,44.90
2022-08-04T22:08:49.095Z,45.23
2022-08-04T22:11:43.850Z,44.94
2022-08-04T22:14:15.963Z,44.74
2022-08-04T22:16:45.240Z,44.60
2022-08-04T22:21:59.553Z,44.78
2022-08-04T22:24:26.204Z,45.06
2022-08-04T22:26:56.451Z,44.98
2022-08-04T22:29:22.966Z,45.04
2022-08-04T22:31:55.903Z,45.22
2022-08-04T22:34:24.964Z,45.87
2022-08-04T22:36:53.574Z,45.87
2022-08-04T22:39:23.596Z,46.16
2022-08-04T22:42:03.672Z,46.49
2022-08-04T22:44:33.896Z,47.04
2022-08-04T22:47:02.972Z,46.91
2022-08-04T22:49:31.815Z,46.60
2022-08-04T22:51:58.892Z,45.29
2022-08-04T22:54:26.132Z,45.96
2022-08-04T22:56:55.215Z,45.76
2022-08-04T22:59:23.562Z,45.83
2022-08-04T23:02:00.374Z,45.65
2022-08-04T23:04:29.832Z,45.51
2022-08-04T23:06:56.852Z,46.01
2022-08-04T23:09:26.903Z,46.24
2022-08-04T23:12:27.255Z,46.54
2022-08-04T23:14:56.114Z,46.70
2022-08-04T23:17:23.444Z,46.92
2022-08-04T23:19:57.304Z,46.81
2022-08-04T23:22:42.023Z,46.98
2022-08-04T23:25:16.301Z,46.65
2022-08-04T23:27:50.812Z,46.44
2022-08-04T23:30:21.777Z,46.49
2022-08-04T23:32:53.228Z,46.76
2022-08-04T23:35:27.971Z,46.58
2022-08-04T23:37:57.873Z,46.40
2022-08-04T23:40:34.748Z,46.88
2022-08-04T23:43:17.884Z,47.21
2022-08-04T23:46:07.265Z,47.19
2022-08-04T23:48:36.065Z,46.55
2022-08-04T23:51:14.188Z,46.52
2022-08-04T23:54:02.411Z,46.64
2022-08-04T23:56:32.760Z,46.70
2022-08-04T23:58:59.999Z,46.69
